Terminal Aerodrome Forecast
Issued by NWS

Home | Current Version | Previous Version | Text Only | Print | Product List | Glossary On
Versions: 1 2 3 4 5 6 7 8 9 10 11 12 13 14 15 16
000
FTUS44 KLZK 021100
TAFBPK
TAF
KBPK 021135Z 0212/0312 22008G15KT P6SM -RA VCTS SCT050CB BKN100
      OVC250
      TEMPO 0212/0213 VRB15G25KT 4SM TSRA BR BKN030CB OVC080
     FM021300 22008G15KT P6SM VCTS SCT050CB BKN100 OVC250
     FM021600 24010G18KT P6SM VCSH SCT050 BKN100 OVC250
     FM022200 27010G18KT P6SM VCTS SCT050CB BKN100 OVC250 PROB30
      0222/0304 5SM TSRA BKN035CB OVC050=

USA.gov is the U.S. government's official web portal to all federal, state and local government web resources and services.